Аэропорт: Кривой Рог. Кривой Рог

ICAO: UKDR

METAR:
2019/01/21 23:08
UKDR 212308Z 32001MPS 0050 R36/0275N FZFG NSC M13/M13 Q1022 R36/890532 NOSIG
METAR:
2019/01/21 22:00
TAF 
      AMD UKDR 212216Z 2122/2218 VRB01MPS 0200 FZFG VV001 
      BECMG 2208/2210 10003MPS 2100 BR OVC007